createdAt,value
2023-04-20T00:02:18.066Z,12.22
2023-04-20T00:04:44.621Z,12.17
2023-04-20T00:07:11.485Z,12.19
2023-04-20T00:09:38.092Z,12.24
2023-04-20T00:12:04.651Z,12.22
2023-04-20T00:14:31.198Z,12.13
2023-04-20T00:16:57.899Z,12.10
2023-04-20T00:19:24.349Z,12.08
2023-04-20T00:21:50.789Z,12.05
2023-04-20T00:24:17.238Z,12.02
2023-04-20T00:26:43.642Z,11.99
2023-04-20T00:29:10.121Z,11.94
2023-04-20T00:31:36.553Z,11.88
2023-04-20T00:34:02.975Z,11.89
2023-04-20T00:36:29.976Z,11.84
2023-04-20T00:38:56.784Z,11.82
2023-04-20T00:41:23.471Z,11.78
2023-04-20T00:43:53.708Z,11.77
2023-04-20T00:46:21.108Z,11.72
2023-04-20T00:48:48.144Z,11.69
2023-04-20T00:51:14.772Z,11.65
2023-04-20T00:53:41.215Z,11.61
2023-04-20T00:56:07.715Z,11.60
2023-04-20T00:58:34.192Z,11.63
2023-04-20T01:01:01.007Z,11.62
2023-04-20T01:03:27.846Z,11.62
2023-04-20T01:05:54.401Z,11.60
2023-04-20T01:08:20.875Z,11.61
2023-04-20T01:10:47.348Z,11.66
2023-04-20T01:13:13.780Z,11.67
2023-04-20T01:15:40.326Z,11.68
2023-04-20T01:18:06.738Z,11.68
2023-04-20T01:20:33.197Z,11.59
2023-04-20T01:22:59.621Z,11.59
2023-04-20T01:25:26.178Z,11.59
2023-04-20T01:27:52.558Z,11.59
2023-04-20T01:30:19.016Z,11.57
2023-04-20T01:32:45.815Z,11.54
2023-04-20T01:35:12.351Z,11.56
2023-04-20T01:37:39.769Z,11.56
2023-04-20T01:40:08.630Z,11.53
2023-04-20T01:42:35.129Z,11.52
2023-04-20T01:45:01.655Z,11.57
2023-04-20T01:47:28.390Z,11.56
2023-04-20T01:49:54.798Z,11.51
2023-04-20T01:52:21.217Z,11.40
2023-04-20T01:54:47.668Z,11.26
2023-04-20T01:57:14.362Z,11.32
2023-04-20T01:59:41.002Z,11.36
2023-04-20T02:02:07.575Z,11.36
2023-04-20T02:04:34.088Z,11.34
2023-04-20T02:07:00.583Z,11.34
2023-04-20T02:09:27.050Z,11.21
2023-04-20T02:11:53.502Z,11.20
2023-04-20T02:14:20.052Z,11.10
2023-04-20T02:16:46.827Z,11.03
2023-04-20T02:19:13.296Z,11.09
2023-04-20T02:21:39.696Z,11.10
2023-04-20T02:24:06.428Z,11.13
2023-04-20T02:26:32.822Z,11.15
2023-04-20T02:28:59.219Z,11.18
2023-04-20T02:31:25.998Z,11.18
2023-04-20T02:33:52.495Z,11.15
2023-04-20T02:36:18.979Z,11.24
2023-04-20T02:38:45.581Z,11.29
2023-04-20T02:41:12.032Z,11.33
2023-04-20T02:43:38.491Z,11.34
2023-04-20T02:46:05.116Z,11.36
2023-04-20T02:48:31.640Z,11.31
2023-04-20T02:50:58.049Z,11.25
2023-04-20T02:53:24.528Z,11.24
2023-04-20T02:55:50.963Z,11.25
2023-04-20T02:58:17.703Z,11.25
2023-04-20T03:00:44.286Z,11.20
2023-04-20T03:03:11.238Z,11.18
2023-04-20T03:05:37.919Z,11.13
2023-04-20T03:08:06.064Z,11.09
2023-04-20T03:10:32.755Z,11.01
2023-04-20T03:12:59.407Z,10.98
2023-04-20T03:15:26.022Z,10.94
2023-04-20T03:17:52.694Z,10.96
2023-04-20T03:20:19.192Z,10.97
2023-04-20T03:22:45.565Z,10.99
2023-04-20T03:25:12.004Z,10.96
2023-04-20T03:27:38.422Z,10.95
2023-04-20T03:30:05.286Z,10.92
2023-04-20T03:32:32.828Z,10.95
2023-04-20T03:34:59.359Z,10.94
2023-04-20T03:37:25.812Z,10.95
2023-04-20T03:39:52.233Z,10.91
2023-04-20T03:42:19.610Z,10.89
2023-04-20T03:44:46.033Z,10.93
2023-04-20T03:47:12.752Z,10.96
2023-04-20T03:49:39.194Z,10.93
2023-04-20T03:52:05.807Z,10.89
2023-04-20T03:54:32.316Z,10.87
2023-04-20T03:56:58.743Z,10.83
2023-04-20T03:59:25.320Z,10.80
2023-04-20T04:01:52.070Z,10.85
2023-04-20T04:04:19.033Z,10.87
2023-04-20T04:06:46.161Z,10.85
2023-04-20T04:09:12.587Z,10.84
2023-04-20T04:11:38.985Z,10.75
2023-04-20T04:14:05.470Z,10.78
2023-04-20T04:16:32.369Z,10.81
2023-04-20T04:18:58.825Z,10.83
2023-04-20T04:21:25.632Z,10.86
2023-04-20T04:23:52.079Z,10.89
2023-04-20T04:26:21.488Z,10.92
2023-04-20T04:28:49.353Z,10.98
2023-04-20T04:31:17.477Z,11.03
2023-04-20T04:33:45.737Z,11.05
2023-04-20T04:36:12.553Z,11.09
2023-04-20T04:38:38.986Z,11.07
2023-04-20T04:41:05.484Z,11.04
2023-04-20T04:43:31.932Z,11.10
2023-04-20T04:45:58.632Z,11.10
2023-04-20T04:48:25.234Z,11.11
2023-04-20T04:50:51.645Z,11.09
2023-04-20T04:53:18.084Z,11.11
2023-04-20T04:55:44.521Z,11.11
2023-04-20T04:58:11.018Z,11.15
2023-04-20T05:00:37.440Z,11.21
2023-04-20T05:03:04.126Z,11.24
2023-04-20T05:05:30.695Z,11.26
2023-04-20T05:07:57.114Z,11.30
2023-04-20T05:10:23.556Z,11.33
2023-04-20T05:12:50.025Z,11.33
2023-04-20T05:15:16.732Z,11.35
2023-04-20T05:17:43.297Z,11.34
2023-04-20T05:20:11.600Z,11.38
2023-04-20T05:22:38.127Z,11.35
2023-04-20T05:25:05.076Z,11.40
2023-04-20T05:27:32.666Z,11.34
2023-04-20T05:30:09.462Z,11.25
2023-04-20T05:32:43.370Z,11.30
2023-04-20T05:35:09.899Z,11.48
2023-04-20T05:37:36.330Z,11.64
2023-04-20T05:40:02.794Z,11.76
2023-04-20T05:42:29.274Z,11.86
2023-04-20T05:44:55.821Z,11.79
2023-04-20T05:47:22.377Z,11.65
2023-04-20T05:49:48.806Z,11.55
2023-04-20T05:52:15.201Z,11.72
2023-04-20T05:54:41.656Z,11.85
2023-04-20T05:57:08.122Z,11.91
2023-04-20T05:59:34.632Z,12.00
2023-04-20T06:02:01.749Z,11.74
2023-04-20T06:04:28.432Z,11.82
2023-04-20T06:06:55.089Z,12.14
2023-04-20T06:09:21.592Z,12.24
2023-04-20T06:11:48.048Z,12.25
2023-04-20T06:14:16.051Z,12.41
2023-04-20T06:16:42.458Z,12.54
2023-04-20T06:19:08.889Z,12.69
2023-04-20T06:21:36.348Z,12.91
2023-04-20T06:24:02.842Z,13.14
2023-04-20T06:26:29.992Z,13.23
2023-04-20T06:28:56.559Z,13.29
2023-04-20T06:31:23.007Z,13.32
2023-04-20T06:33:49.515Z,13.22
2023-04-20T06:36:16.045Z,13.17
2023-04-20T06:38:42.528Z,12.98
2023-04-20T06:41:09.050Z,13.02
2023-04-20T06:43:35.626Z,13.11
2023-04-20T06:46:02.042Z,13.07
2023-04-20T06:48:32.192Z,13.09
2023-04-20T06:50:59.705Z,13.11
2023-04-20T06:53:26.264Z,13.10
2023-04-20T06:55:55.826Z,13.10
2023-04-20T06:58:22.395Z,13.15
2023-04-20T07:00:48.887Z,13.14
2023-04-20T07:03:15.827Z,13.26
2023-04-20T07:05:42.439Z,13.41
2023-04-20T07:08:09.555Z,13.46
2023-04-20T07:10:36.143Z,13.62
2023-04-20T07:13:02.672Z,13.63
2023-04-20T07:15:29.139Z,13.71
2023-04-20T07:17:55.686Z,13.68
2023-04-20T07:20:22.210Z,13.80
2023-04-20T07:22:48.810Z,13.89
2023-04-20T07:25:15.322Z,14.01
2023-04-20T07:27:41.833Z,14.11
2023-04-20T07:30:09.137Z,14.26
2023-04-20T07:32:36.003Z,14.42
2023-04-20T07:35:03.435Z,14.57
2023-04-20T07:37:30.007Z,14.57
2023-04-20T07:39:56.497Z,14.51
2023-04-20T07:42:22.973Z,14.50
2023-04-20T07:44:49.514Z,14.53
2023-04-20T07:47:16.027Z,14.58
2023-04-20T07:49:43.261Z,14.51
2023-04-20T07:52:16.466Z,14.67
2023-04-20T07:54:43.757Z,14.64
2023-04-20T07:57:10.215Z,14.60
2023-04-20T07:59:36.737Z,14.72
2023-04-20T08:02:03.816Z,14.73
2023-04-20T08:04:31.188Z,15.00
2023-04-20T08:06:57.925Z,15.28
2023-04-20T08:09:26.149Z,15.49
2023-04-20T08:11:52.606Z,15.68
2023-04-20T08:14:19.266Z,15.64
2023-04-20T08:16:46.223Z,15.64
2023-04-20T08:21:44.037Z,15.59
2023-04-20T08:24:10.555Z,15.46
2023-04-20T08:26:37.240Z,15.52
2023-04-20T08:29:04.338Z,15.58
2023-04-20T08:31:30.908Z,15.55
2023-04-20T08:33:57.446Z,15.53
2023-04-20T08:36:24.243Z,15.46
2023-04-20T08:38:54.763Z,15.60
2023-04-20T08:41:21.350Z,15.68
2023-04-20T08:43:48.568Z,15.67
2023-04-20T08:46:15.255Z,15.66
2023-04-20T08:48:42.033Z,15.53
2023-04-20T08:51:08.785Z,15.51
2023-04-20T08:53:35.245Z,15.51
2023-04-20T08:56:01.710Z,15.44
2023-04-20T08:58:32.327Z,15.34
2023-04-20T09:01:00.789Z,15.22
2023-04-20T09:03:34.871Z,14.89
2023-04-20T09:06:01.498Z,14.77
2023-04-20T09:08:40.917Z,14.76
2023-04-20T09:11:07.636Z,14.76
2023-04-20T09:13:34.190Z,14.84
2023-04-20T09:16:10.656Z,14.81
2023-04-20T09:18:37.783Z,14.89
2023-04-20T09:21:07.952Z,15.06
2023-04-20T09:23:34.402Z,15.10
2023-04-20T09:26:00.822Z,15.21
2023-04-20T09:28:35.953Z,15.27
2023-04-20T09:31:02.437Z,15.47
2023-04-20T09:33:29.467Z,15.44
2023-04-20T09:36:02.505Z,15.56
2023-04-20T09:38:30.876Z,15.68
2023-04-20T09:41:01.447Z,15.75
2023-04-20T09:43:29.013Z,15.54
2023-04-20T09:45:56.450Z,15.55
2023-04-20T09:48:22.997Z,15.55
2023-04-20T09:50:51.159Z,15.61
2023-04-20T09:53:18.768Z,15.62
2023-04-20T09:55:51.966Z,15.60
2023-04-20T09:58:20.015Z,15.51
2023-04-20T10:00:46.648Z,15.66
2023-04-20T10:03:16.652Z,15.92
2023-04-20T10:05:43.302Z,15.99
2023-04-20T10:08:09.840Z,16.29
2023-04-20T10:10:47.376Z,16.41
2023-04-20T10:13:14.277Z,16.62
2023-04-20T10:15:41.521Z,16.51
2023-04-20T10:18:20.441Z,16.45
2023-04-20T10:20:47.147Z,16.70
2023-04-20T10:23:16.512Z,16.83
2023-04-20T10:25:45.143Z,17.03
2023-04-20T10:28:12.153Z,17.44
2023-04-20T10:30:49.717Z,17.63
2023-04-20T10:33:17.347Z,17.35
2023-04-20T10:35:46.671Z,17.22
2023-04-20T10:38:13.348Z,17.22
2023-04-20T10:40:39.913Z,17.24
2023-04-20T10:43:17.968Z,17.18
2023-04-20T10:45:44.409Z,17.38
2023-04-20T10:48:10.957Z,17.48
2023-04-20T10:50:37.851Z,17.23
2023-04-20T10:53:04.682Z,17.09
2023-04-20T10:55:31.272Z,17.36
2023-04-20T10:57:57.778Z,17.75
2023-04-20T11:00:25.725Z,17.81
2023-04-20T11:02:56.793Z,17.94
2023-04-20T11:05:24.627Z,18.10
2023-04-20T11:07:55.503Z,18.15
2023-04-20T11:10:23.212Z,18.48
2023-04-20T11:12:49.697Z,18.71
2023-04-20T11:15:16.435Z,18.67
2023-04-20T11:17:42.958Z,18.58
2023-04-20T11:20:18.525Z,18.51
2023-04-20T11:22:45.268Z,18.43
2023-04-20T11:25:12.472Z,18.60
2023-04-20T11:27:39.476Z,18.82
2023-04-20T11:30:06.333Z,18.68
2023-04-20T11:32:33.331Z,18.61
2023-04-20T11:35:07.583Z,18.40
2023-04-20T11:37:35.346Z,17.97
2023-04-20T11:40:04.943Z,17.71
2023-04-20T11:42:31.530Z,17.61
2023-04-20T11:44:58.751Z,17.64
2023-04-20T11:47:25.293Z,17.56
2023-04-20T11:49:51.735Z,17.54
2023-04-20T11:52:18.268Z,17.61
2023-04-20T11:54:44.815Z,17.63
2023-04-20T11:57:11.484Z,17.83
2023-04-20T11:59:38.038Z,17.98
2023-04-20T12:02:05.615Z,18.18
2023-04-20T12:04:33.342Z,18.26
2023-04-20T12:07:00.358Z,18.29
2023-04-20T12:09:26.939Z,18.40
2023-04-20T12:11:53.519Z,18.62
2023-04-20T12:14:20.299Z,18.75
2023-04-20T12:16:46.799Z,18.90
2023-04-20T12:19:13.295Z,18.79
2023-04-20T12:21:39.806Z,18.88
2023-04-20T12:24:06.353Z,18.81
2023-04-20T12:26:38.423Z,18.68
2023-04-20T12:29:05.660Z,18.57
2023-04-20T12:31:32.160Z,18.49
2023-04-20T12:33:58.694Z,18.62
2023-04-20T12:36:25.217Z,18.67
2023-04-20T12:38:52.546Z,18.50
2023-04-20T12:41:19.284Z,18.47
2023-04-20T12:43:45.723Z,18.46
2023-04-20T12:46:12.458Z,18.42
2023-04-20T12:48:38.919Z,18.41
2023-04-20T12:51:05.472Z,18.31
2023-04-20T12:53:31.967Z,18.21
2023-04-20T12:56:01.286Z,18.14
2023-04-20T12:58:28.117Z,18.04
2023-04-20T13:00:54.629Z,18.03
2023-04-20T13:03:21.466Z,18.05
2023-04-20T13:05:48.095Z,18.09
2023-04-20T13:08:14.532Z,18.15
2023-04-20T13:10:42.888Z,18.06
2023-04-20T13:13:10.723Z,17.97
2023-04-20T13:15:39.038Z,17.98
2023-04-20T13:18:06.767Z,17.96
2023-04-20T13:20:33.394Z,18.05
2023-04-20T13:23:01.298Z,18.12
2023-04-20T13:25:28.971Z,18.18
2023-04-20T13:27:55.505Z,18.14
2023-04-20T13:30:24.286Z,18.07
2023-04-20T13:32:51.248Z,17.86
2023-04-20T13:35:17.952Z,17.92
2023-04-20T13:37:45.161Z,17.88
2023-04-20T13:40:11.951Z,17.66
2023-04-20T13:42:38.455Z,17.87
2023-04-20T13:45:05.359Z,18.03
2023-04-20T13:47:31.961Z,18.16
2023-04-20T13:49:58.469Z,18.26
2023-04-20T13:52:25.011Z,18.41
2023-04-20T13:54:51.469Z,18.43
2023-04-20T13:57:17.902Z,18.42
2023-04-20T13:59:44.370Z,18.40
2023-04-20T14:02:11.164Z,18.35
2023-04-20T14:04:37.694Z,18.30
2023-04-20T14:07:04.220Z,18.38
2023-04-20T14:09:33.397Z,18.11
2023-04-20T14:11:59.844Z,17.91
2023-04-20T14:14:26.452Z,17.68
2023-04-20T14:16:53.110Z,17.67
2023-04-20T14:19:19.547Z,17.72
2023-04-20T14:21:47.286Z,17.85
2023-04-20T14:24:13.970Z,17.80
2023-04-20T14:26:41.050Z,17.66
2023-04-20T14:29:07.807Z,17.73
2023-04-20T14:31:35.061Z,17.61
2023-04-20T14:34:01.662Z,17.53
2023-04-20T14:36:28.136Z,17.45
2023-04-20T14:38:55.596Z,17.49
2023-04-20T14:41:22.222Z,17.59
2023-04-20T14:43:48.724Z,17.56
2023-04-20T14:46:15.636Z,17.45
2023-04-20T14:48:42.114Z,17.35
2023-04-20T14:51:08.532Z,17.16
2023-04-20T14:53:34.996Z,17.19
2023-04-20T14:56:01.432Z,17.14
2023-04-20T14:58:27.899Z,17.12
2023-04-20T15:00:54.599Z,17.02
2023-04-20T15:03:21.383Z,17.04
2023-04-20T15:05:48.285Z,16.97
2023-04-20T15:08:14.891Z,16.84
2023-04-20T15:10:41.347Z,16.82
2023-04-20T15:13:07.947Z,16.78
2023-04-20T15:15:47.530Z,16.80
2023-04-20T15:18:14.566Z,16.87
2023-04-20T15:20:41.015Z,16.86
2023-04-20T15:23:07.457Z,16.93
2023-04-20T15:25:33.918Z,16.91
2023-04-20T15:28:00.403Z,16.91
2023-04-20T15:30:26.943Z,16.92
2023-04-20T15:32:53.512Z,16.88
2023-04-20T15:35:20.100Z,16.82
2023-04-20T15:37:46.693Z,16.87
2023-04-20T15:40:13.285Z,16.92
2023-04-20T15:42:39.773Z,16.93
2023-04-20T15:45:06.825Z,16.92
2023-04-20T15:47:33.276Z,16.84
2023-04-20T15:50:01.716Z,16.83
2023-04-20T15:52:29.210Z,16.79
2023-04-20T15:54:55.859Z,16.64
2023-04-20T15:57:22.433Z,16.50
2023-04-20T15:59:48.875Z,16.42
2023-04-20T16:02:15.571Z,16.14
2023-04-20T16:04:42.564Z,16.03
2023-04-20T16:07:09.421Z,15.87
2023-04-20T16:09:35.856Z,15.83
2023-04-20T16:12:05.246Z,15.86
2023-04-20T16:14:31.776Z,15.70
2023-04-20T16:17:02.085Z,15.60
2023-04-20T16:19:28.759Z,15.39
2023-04-20T16:21:55.349Z,15.15
2023-04-20T16:24:21.887Z,15.20
2023-04-20T16:26:48.294Z,15.18
2023-04-20T16:29:14.789Z,15.21
2023-04-20T16:31:41.303Z,15.15
2023-04-20T16:34:07.833Z,15.02
2023-04-20T16:36:34.575Z,14.96
2023-04-20T16:39:05.795Z,14.92
2023-04-20T16:41:32.318Z,14.90
2023-04-20T16:43:59.124Z,14.88
2023-04-20T16:46:25.970Z,14.84
2023-04-20T16:48:54.576Z,14.92
2023-04-20T16:51:21.034Z,14.98
2023-04-20T16:53:47.539Z,15.10
2023-04-20T16:56:14.834Z,15.12
2023-04-20T16:58:41.247Z,15.16
2023-04-20T17:01:08.089Z,15.19
2023-04-20T17:03:35.070Z,15.19
2023-04-20T17:06:07.342Z,15.25
2023-04-20T17:08:34.564Z,15.25
2023-04-20T17:11:01.982Z,15.28
2023-04-20T17:13:28.529Z,15.25
2023-04-20T17:15:55.038Z,15.24
2023-04-20T17:18:21.709Z,15.23
2023-04-20T17:20:48.663Z,15.18
2023-04-20T17:23:18.264Z,15.22
2023-04-20T17:25:47.273Z,15.23
2023-04-20T17:28:14.332Z,15.27
2023-04-20T17:30:41.477Z,15.26
2023-04-20T17:33:12.365Z,15.23
2023-04-20T17:35:39.576Z,15.26
2023-04-20T17:38:06.520Z,15.24
2023-04-20T17:40:33.050Z,15.20
2023-04-20T17:42:59.549Z,15.22
2023-04-20T17:45:26.047Z,15.14
2023-04-20T17:47:53.722Z,15.16
2023-04-20T17:50:20.579Z,15.19
2023-04-20T17:52:47.234Z,15.17
2023-04-20T17:55:13.743Z,15.16
2023-04-20T17:57:40.392Z,15.12
2023-04-20T18:00:07.896Z,15.06
2023-04-20T18:02:34.509Z,15.06
2023-04-20T18:05:01.225Z,15.02
2023-04-20T18:07:28.058Z,15.03
2023-04-20T18:09:54.709Z,15.03
2023-04-20T18:12:21.257Z,15.08
2023-04-20T18:14:47.718Z,15.05
2023-04-20T18:17:14.192Z,15.05
2023-04-20T18:19:43.725Z,14.88
2023-04-20T18:22:10.214Z,14.87
2023-04-20T18:24:36.777Z,14.89
2023-04-20T18:27:04.015Z,14.89
2023-04-20T18:29:30.583Z,14.83
2023-04-20T18:31:59.445Z,14.84
2023-04-20T18:34:30.090Z,14.80
2023-04-20T18:36:57.037Z,14.76
2023-04-20T18:39:24.191Z,14.66
2023-04-20T18:41:50.770Z,14.58
2023-04-20T18:44:17.492Z,14.50
2023-04-20T18:46:44.311Z,14.43
2023-04-20T18:49:11.605Z,14.36
2023-04-20T18:51:38.229Z,14.30
2023-04-20T18:54:04.810Z,14.27
2023-04-20T18:56:31.345Z,14.24
2023-04-20T18:58:59.262Z,14.11
2023-04-20T19:01:26.018Z,14.06
2023-04-20T19:03:52.854Z,14.05
2023-04-20T19:06:19.712Z,13.96
2023-04-20T19:08:46.215Z,13.89
2023-04-20T19:11:12.647Z,13.91
2023-04-20T19:13:44.504Z,13.87
2023-04-20T19:16:12.067Z,13.78
2023-04-20T19:18:38.980Z,13.68
2023-04-20T19:21:05.652Z,13.61
2023-04-20T19:23:32.184Z,13.64
2023-04-20T19:25:58.668Z,13.64
2023-04-20T19:28:25.227Z,13.64
2023-04-20T19:30:51.714Z,13.54
2023-04-20T19:33:18.225Z,13.50
2023-04-20T19:35:50.576Z,13.52
2023-04-20T19:38:17.990Z,13.50
2023-04-20T19:40:45.133Z,13.50
2023-04-20T19:43:11.596Z,13.41
2023-04-20T19:45:38.603Z,13.39
2023-04-20T19:48:05.357Z,13.38
2023-04-20T19:50:32.006Z,13.36
2023-04-20T19:52:58.626Z,13.37
2023-04-20T19:55:25.170Z,13.35
2023-04-20T19:57:51.802Z,13.41
2023-04-20T20:00:18.314Z,13.37
2023-04-20T20:02:44.935Z,13.33
2023-04-20T20:05:11.517Z,13.32
2023-04-20T20:07:38.280Z,13.28
2023-04-20T20:10:04.869Z,13.26
2023-04-20T20:12:31.353Z,13.21
2023-04-20T20:14:57.855Z,13.22
2023-04-20T20:17:24.392Z,13.13
2023-04-20T20:19:53.649Z,13.17
2023-04-20T20:22:20.966Z,13.15
2023-04-20T20:24:47.995Z,13.09
2023-04-20T20:27:14.543Z,13.10
2023-04-20T20:29:41.125Z,13.02
2023-04-20T20:32:07.562Z,13.06
2023-04-20T20:34:34.054Z,13.03
2023-04-20T20:37:00.528Z,13.02
2023-04-20T20:39:26.977Z,12.99
2023-04-20T20:41:53.460Z,13.00
2023-04-20T20:44:20.789Z,12.97
2023-04-20T20:46:47.608Z,12.97
2023-04-20T20:49:14.202Z,12.94
2023-04-20T20:51:41.463Z,12.90
2023-04-20T20:54:07.866Z,12.97
2023-04-20T20:56:34.292Z,12.91
2023-04-20T20:59:00.874Z,12.91
2023-04-20T21:01:27.612Z,12.91
2023-04-20T21:03:54.324Z,12.83
2023-04-20T21:06:20.979Z,12.88
2023-04-20T21:08:48.686Z,12.84
2023-04-20T21:11:15.103Z,12.83
2023-04-20T21:13:41.503Z,12.83
2023-04-20T21:16:07.982Z,12.76
2023-04-20T21:18:34.516Z,12.70
2023-04-20T21:21:00.994Z,12.68
2023-04-20T21:23:27.433Z,12.70
2023-04-20T21:25:53.881Z,12.68
2023-04-20T21:28:20.424Z,12.68
2023-04-20T21:30:46.861Z,12.66
2023-04-20T21:33:13.379Z,12.70
2023-04-20T21:35:39.909Z,12.65
2023-04-20T21:38:06.353Z,12.58
2023-04-20T21:40:34.290Z,12.55
2023-04-20T21:43:01.017Z,12.55
2023-04-20T21:45:27.391Z,12.49
2023-04-20T21:47:55.427Z,12.51
2023-04-20T21:50:26.948Z,12.49
2023-04-20T21:52:54.284Z,12.39
2023-04-20T21:55:20.842Z,12.23
2023-04-20T21:57:47.357Z,12.22
2023-04-20T22:00:14.063Z,12.29
2023-04-20T22:02:40.669Z,12.11
2023-04-20T22:05:08.685Z,12.13
2023-04-20T22:07:35.096Z,12.15
2023-04-20T22:10:01.837Z,12.20
2023-04-20T22:12:38.291Z,12.22
2023-04-20T22:15:13.596Z,12.20
2023-04-20T22:17:40.653Z,12.23
2023-04-20T22:20:08.284Z,12.29
2023-04-20T22:22:35.606Z,12.24
2023-04-20T22:25:04.409Z,12.13
2023-04-20T22:27:31.640Z,12.14
2023-04-20T22:29:58.073Z,12.19
2023-04-20T22:32:24.505Z,12.19
2023-04-20T22:34:51.101Z,12.11
2023-04-20T22:37:17.554Z,12.07
2023-04-20T22:39:44.008Z,12.11
2023-04-20T22:42:10.463Z,11.96
2023-04-20T22:44:36.863Z,12.00
2023-04-20T22:47:03.429Z,11.99
2023-04-20T22:49:29.897Z,11.95
2023-04-20T22:51:57.579Z,11.93
2023-04-20T22:54:24.540Z,11.94
2023-04-20T22:56:51.118Z,11.91
2023-04-20T22:59:17.721Z,11.88
2023-04-20T23:01:44.409Z,11.90
2023-04-20T23:04:11.032Z,11.86
2023-04-20T23:06:37.869Z,11.64
2023-04-20T23:09:07.490Z,11.59
2023-04-20T23:11:38.691Z,11.57
2023-04-20T23:14:08.675Z,11.53
2023-04-20T23:16:35.609Z,11.46
2023-04-20T23:19:02.145Z,11.40
2023-04-20T23:21:28.614Z,11.31
2023-04-20T23:23:57.750Z,11.26
2023-04-20T23:26:24.276Z,11.11
2023-04-20T23:28:52.071Z,11.05
2023-04-20T23:31:21.619Z,11.00
2023-04-20T23:33:48.377Z,11.07
2023-04-20T23:36:15.395Z,10.97
2023-04-20T23:38:42.184Z,11.02
2023-04-20T23:41:09.723Z,10.95
2023-04-20T23:43:38.397Z,10.84
2023-04-20T23:46:05.744Z,10.90
2023-04-20T23:48:32.507Z,10.81
2023-04-20T23:50:59.042Z,10.81
2023-04-20T23:53:25.768Z,10.77
2023-04-20T23:55:55.396Z,10.70
2023-04-20T23:58:25.715Z,10.65
